This is the latest recevied weather packets stored in our database for station/object JA3QOS-13. If no packets are shown the sender has not sent any weather packets the latest 10 day(s).
| Time | Temp. | Humidity | Pressure | Rain* | Wind** | Luminosity | Snow |
|---|---|---|---|---|---|---|---|
| 1787488204 | 24.44° C | 96% | 1017.1 hPa | 0 mm | - | - | - |
| 1787486403 | 25° C | 93% | 1017 hPa | 0 mm | - | - | - |
| 1787484604 | 25.56° C | 83% | 1017 hPa | 0 mm | - | - | - |
| 1787482803 | 26.11° C | 79% | 1016.6 hPa | 0 mm | - | - | - |
| 1787481004 | 25.56° C | 76% | 1016 hPa | 0 mm | - | - | - |
| 1787479203 | 25° C | 83% | 1015.6 hPa | 0 mm | - | - | - |
| 1787477403 | 23.89° C | 92% | 1015.6 hPa | 0 mm | - | - | - |
| 1787475604 | 23.89° C | 93% | 1015.6 hPa | 0 mm | - | - | - |
| 1787473803 | 27.22° C | 86% | 1015.7 hPa | 0 mm | - | - | - |
| 1787472003 | 29.44° C | 77% | 1015.3 hPa | 0 mm | - | - | - |
| 1787470203 | 29.44° C | 76% | 1015.1 hPa | 0 mm | - | - | - |
| 1787468404 | 31.67° C | 69% | 1014.9 hPa | 0 mm | - | - | - |
| 1787466603 | 32.22° C | 64% | 1015.2 hPa | 0 mm | - | - | - |
| 1787464803 | 32.78° C | 66% | 1015.2 hPa | 0 mm | - | - | - |
| 1787463004 | 31.67° C | 72% | 1015.6 hPa | 0 mm | - | - | - |
| 1787461204 | 31.67° C | 71% | 1015.9 hPa | 0 mm | - | - | - |
| 1787459404 | 31.67° C | 73% | 1015.9 hPa | 0 mm | - | - | - |
| 1787457604 | 31.67° C | 72% | 1015.9 hPa | 0 mm | - | - | - |
| 1787455804 | 31.67° C | 76% | 1016.1 hPa | 0 mm | - | - | - |
| 1787454004 | 30° C | 80% | 1016.4 hPa | 0 mm | - | - | - |
| 1787452204 | 29.44° C | 82% | 1016.6 hPa | 0 mm | - | - | - |
| 1787450403 | 29.44° C | 79% | 1016.7 hPa | 0 mm | - | - | - |
| 1787448604 | 28.89° C | 85% | 1017 hPa | 0 mm | - | - | - |
| 1787446804 | 29.44° C | 83% | 1016.9 hPa | 0 mm | - | - | - |
| 1787445004 | 27.78° C | 87% | 1017 hPa | 0 mm | - | - | - |
* Rain latest hour (hover to see other rain measurements)
** Current wind speed in m/s (hover to see current wind gust speed)